createdAt,value
2024-05-09T00:00:54.722Z,20.37
2024-05-09T00:03:25.029Z,19.97
2024-05-09T00:05:55.313Z,19.77
2024-05-09T00:08:25.478Z,20.63
2024-05-09T00:10:55.944Z,21.50
2024-05-09T00:13:26.078Z,20.80
2024-05-09T00:15:58.943Z,22.97
2024-05-09T00:18:29.061Z,20.63
2024-05-09T00:20:59.578Z,19.47
2024-05-09T00:23:29.853Z,21.17
2024-05-09T00:26:02.640Z,20.53
2024-05-09T00:28:32.730Z,21.37
2024-05-09T00:31:05.774Z,21.67
2024-05-09T00:33:36.446Z,21.73
2024-05-09T00:36:06.702Z,21.30
2024-05-09T00:38:36.981Z,19.83
2024-05-09T00:41:07.438Z,20.90
2024-05-09T00:43:37.626Z,22.00
2024-05-09T00:46:11.152Z,21.90
2024-05-09T00:48:41.668Z,21.30
2024-05-09T00:51:12.016Z,22.37
2024-05-09T00:53:42.465Z,21.83
2024-05-09T00:56:14.292Z,21.17
2024-05-09T00:58:44.715Z,21.67
2024-05-09T01:01:19.091Z,22.17
2024-05-09T01:03:51.186Z,23.13
2024-05-09T01:06:23.297Z,20.33
2024-05-09T01:08:53.487Z,21.50
2024-05-09T01:11:23.969Z,20.60
2024-05-09T01:13:54.692Z,20.90
2024-05-09T01:16:27.495Z,21.57
2024-05-09T01:18:57.660Z,20.33
2024-05-09T01:21:27.959Z,20.93
2024-05-09T01:24:00.792Z,21.53
2024-05-09T01:26:31.171Z,25.00
2024-05-09T01:29:01.304Z,21.00
2024-05-09T01:31:31.761Z,21.37
2024-05-09T01:34:01.947Z,22.43
2024-05-09T01:36:38.225Z,21.97
2024-05-09T01:39:10.996Z,22.83
2024-05-09T01:41:41.071Z,21.83
2024-05-09T01:44:11.386Z,22.60
2024-05-09T01:46:41.441Z,21.73
2024-05-09T01:49:11.669Z,23.47
2024-05-09T01:51:41.922Z,21.77
2024-05-09T01:54:14.665Z,23.67
2024-05-09T01:56:44.732Z,23.13
2024-05-09T01:59:14.912Z,23.13
2024-05-09T02:01:56.451Z,23.80
2024-05-09T02:04:28.169Z,23.30
2024-05-09T02:06:58.627Z,23.40
2024-05-09T02:09:31.476Z,23.10
2024-05-09T02:12:01.748Z,24.33
2024-05-09T02:14:32.037Z,24.77
2024-05-09T02:17:02.262Z,24.77
2024-05-09T02:19:34.123Z,24.33
2024-05-09T02:22:04.330Z,24.07
2024-05-09T02:24:37.057Z,31.57
2024-05-09T02:27:07.310Z,25.77
2024-05-09T02:29:37.995Z,26.70
2024-05-09T02:32:08.742Z,25.33
2024-05-09T02:34:39.032Z,25.00
2024-05-09T02:37:09.381Z,23.63
2024-05-09T02:39:39.552Z,24.17
2024-05-09T02:42:09.657Z,25.33
2024-05-09T02:44:37.297Z,24.50
2024-05-09T02:47:07.763Z,23.97
2024-05-09T02:49:35.682Z,22.60
2024-05-09T02:52:05.775Z,24.57
2024-05-09T02:54:33.237Z,26.93
2024-05-09T02:57:06.147Z,23.47
2024-05-09T02:59:33.672Z,25.53
2024-05-09T03:02:03.836Z,24.70
2024-05-09T03:04:31.536Z,24.63
2024-05-09T03:07:01.865Z,23.27
2024-05-09T03:09:29.352Z,23.20
2024-05-09T03:11:59.653Z,23.03
2024-05-09T03:14:29.944Z,24.00
2024-05-09T03:17:00.429Z,22.10
2024-05-09T03:19:28.204Z,22.77
2024-05-09T03:21:58.388Z,24.53
2024-05-09T03:24:25.771Z,23.53
2024-05-09T03:26:55.945Z,22.77
2024-05-09T03:29:23.397Z,23.80
2024-05-09T03:31:56.265Z,24.27
2024-05-09T03:34:23.816Z,24.67
2024-05-09T03:36:53.933Z,23.60
2024-05-09T03:39:23.958Z,23.80
2024-05-09T03:41:54.118Z,23.63
2024-05-09T03:44:24.229Z,23.40
2024-05-09T03:46:54.382Z,24.47
2024-05-09T03:49:24.995Z,24.87
2024-05-09T03:51:52.849Z,23.57
2024-05-09T03:54:24.733Z,24.70
2024-05-09T03:56:52.171Z,25.13
2024-05-09T03:59:22.365Z,24.73
2024-05-09T04:01:49.977Z,24.80
2024-05-09T04:04:22.903Z,24.73
2024-05-09T04:06:50.299Z,25.63
2024-05-09T04:09:20.774Z,25.83
2024-05-09T04:11:49.023Z,25.30
2024-05-09T04:14:20.171Z,25.53
2024-05-09T04:16:47.677Z,24.90
2024-05-09T04:19:18.033Z,25.20
2024-05-09T04:21:51.024Z,26.80
2024-05-09T04:24:18.487Z,27.93
2024-05-09T04:26:48.563Z,25.83
2024-05-09T04:29:16.074Z,25.80
2024-05-09T04:31:46.553Z,27.13
2024-05-09T04:34:14.116Z,25.03
2024-05-09T04:36:44.841Z,25.53
2024-05-09T04:39:14.976Z,26.07
2024-05-09T04:41:47.843Z,24.93
2024-05-09T04:44:15.392Z,26.47
2024-05-09T04:46:46.183Z,25.20
2024-05-09T04:49:13.943Z,24.83
2024-05-09T04:51:44.262Z,25.70
2024-05-09T04:54:26.039Z,25.37
2024-05-09T04:57:03.868Z,25.90
2024-05-09T04:59:31.470Z,25.80
2024-05-09T05:02:02.856Z,26.37
2024-05-09T05:04:31.113Z,25.67
2024-05-09T05:07:02.960Z,25.70
2024-05-09T05:09:33.559Z,26.30
2024-05-09T05:12:23.837Z,27.77
2024-05-09T05:14:51.336Z,27.90
2024-05-09T05:17:21.546Z,25.90
2024-05-09T05:19:49.100Z,26.13
2024-05-09T05:22:19.258Z,27.67
2024-05-09T05:24:49.350Z,26.00
2024-05-09T05:27:19.594Z,25.13
2024-05-09T05:29:47.383Z,26.67
2024-05-09T05:32:17.660Z,26.87
2024-05-09T05:34:45.254Z,25.83
2024-05-09T05:37:15.417Z,25.87
2024-05-09T05:39:42.806Z,25.63
2024-05-09T05:42:15.549Z,25.00
2024-05-09T05:44:43.001Z,24.80
2024-05-09T05:47:13.190Z,24.60
2024-05-09T05:49:40.943Z,23.30
2024-05-09T05:52:11.184Z,24.43
2024-05-09T05:55:04.421Z,26.23
2024-05-09T05:57:37.343Z,23.07
2024-05-09T06:00:09.432Z,23.53
2024-05-09T06:02:40.165Z,22.50
2024-05-09T06:05:08.518Z,24.07
2024-05-09T06:07:38.684Z,22.83
2024-05-09T06:10:11.442Z,24.67
2024-05-09T06:12:49.258Z,19.20
2024-05-09T06:15:17.132Z,19.53
2024-05-09T06:17:47.356Z,19.57
2024-05-09T06:20:20.714Z,19.47
2024-05-09T06:22:57.444Z,20.57
2024-05-09T06:25:24.926Z,18.20
2024-05-09T06:27:57.719Z,19.07
2024-05-09T06:30:30.763Z,18.83
2024-05-09T06:33:10.822Z,16.43
2024-05-09T06:35:40.512Z,15.33
2024-05-09T06:38:12.599Z,14.17
2024-05-09T06:40:42.608Z,15.23
2024-05-09T06:43:18.966Z,15.93
2024-05-09T06:45:48.166Z,15.50
2024-05-09T06:48:21.210Z,15.33
2024-05-09T06:50:49.409Z,15.43
2024-05-09T06:53:20.104Z,16.80
2024-05-09T06:55:47.728Z,16.13
2024-05-09T06:58:20.510Z,16.25
2024-05-09T07:00:48.162Z,14.32
2024-05-09T07:03:19.609Z,14.88
2024-05-09T07:05:49.168Z,15.75
2024-05-09T07:08:20.142Z,16.48
2024-05-09T07:10:47.766Z,17.42
2024-05-09T07:13:20.672Z,15.30
2024-05-09T07:15:48.085Z,14.38
2024-05-09T07:18:20.299Z,13.30
2024-05-09T07:20:49.306Z,13.07
2024-05-09T07:23:20.511Z,11.95
2024-05-09T07:25:48.279Z,14.18
2024-05-09T07:28:22.517Z,15.25
2024-05-09T07:30:50.187Z,16.02
2024-05-09T07:33:22.537Z,13.10
2024-05-09T07:35:51.657Z,13.18
2024-05-09T07:38:21.994Z,12.75
2024-05-09T07:40:49.657Z,11.30
2024-05-09T07:43:22.527Z,13.00
2024-05-09T07:45:54.004Z,11.25
2024-05-09T07:50:00.155Z,12.40
2024-05-09T07:53:51.255Z,10.70
2024-05-09T07:56:23.157Z,9.57
2024-05-09T07:58:56.948Z,10.98
2024-05-09T08:01:26.607Z,10.40
2024-05-09T08:03:57.286Z,12.27
2024-05-09T08:06:25.514Z,10.30
2024-05-09T08:08:56.048Z,10.73
2024-05-09T08:11:24.468Z,11.18
2024-05-09T08:13:57.182Z,11.13
2024-05-09T08:16:25.146Z,10.80
2024-05-09T08:18:55.420Z,10.68
2024-05-09T08:21:23.026Z,11.88
2024-05-09T08:23:53.123Z,12.15
2024-05-09T08:26:20.564Z,9.95
2024-05-09T08:28:51.575Z,11.65
2024-05-09T08:31:22.134Z,10.82
2024-05-09T08:33:55.411Z,11.27
2024-05-09T08:36:23.180Z,11.27
2024-05-09T08:38:53.351Z,11.20
2024-05-09T08:41:20.740Z,12.05
2024-05-09T08:43:51.032Z,10.38
2024-05-09T08:46:21.569Z,11.90
2024-05-09T08:48:53.141Z,10.20
2024-05-09T08:51:20.841Z,11.88
2024-05-09T08:53:51.323Z,9.88
2024-05-09T08:56:20.838Z,10.20
2024-05-09T08:58:52.818Z,11.15
2024-05-09T09:01:23.194Z,11.35
2024-05-09T09:03:55.742Z,11.18
2024-05-09T09:06:23.748Z,15.98
2024-05-09T09:08:54.029Z,11.07
2024-05-09T09:11:21.459Z,10.23
2024-05-09T09:13:51.590Z,11.85
2024-05-09T09:16:19.310Z,9.70
2024-05-09T09:18:52.388Z,11.00
2024-05-09T09:21:20.055Z,10.45
2024-05-09T09:23:50.603Z,10.13
2024-05-09T09:26:18.059Z,11.07
2024-05-09T09:28:48.183Z,10.23
2024-05-09T09:31:17.812Z,12.40
2024-05-09T09:33:48.333Z,11.98
2024-05-09T09:36:19.062Z,10.32
2024-05-09T09:38:51.126Z,9.80
2024-05-09T09:41:20.228Z,12.02
2024-05-09T09:43:51.963Z,11.77
2024-05-09T09:46:20.137Z,10.00
2024-05-09T09:48:51.108Z,10.38
2024-05-09T09:51:22.347Z,9.05
2024-05-09T09:53:54.107Z,10.23
2024-05-09T09:56:21.642Z,10.98
2024-05-09T09:58:51.828Z,9.88
2024-05-09T10:01:19.428Z,10.20
2024-05-09T10:03:49.731Z,10.93
2024-05-09T10:06:18.005Z,10.23
2024-05-09T10:08:52.335Z,10.90
2024-05-09T10:11:20.669Z,10.73
2024-05-09T10:13:51.194Z,11.38
2024-05-09T10:16:22.335Z,10.63
2024-05-09T10:18:52.950Z,11.93
2024-05-09T10:21:20.987Z,11.80
2024-05-09T10:24:03.769Z,11.55
2024-05-09T10:26:33.428Z,12.02
2024-05-09T10:29:03.765Z,12.05
2024-05-09T10:31:31.325Z,12.15
2024-05-09T10:34:05.444Z,12.27
2024-05-09T10:36:33.303Z,11.85
2024-05-09T10:39:07.451Z,12.70
2024-05-09T10:41:35.058Z,11.50
2024-05-09T10:44:05.156Z,13.13
2024-05-09T10:46:32.638Z,13.15
2024-05-09T10:49:06.302Z,12.50
2024-05-09T10:51:35.849Z,13.48
2024-05-09T10:54:08.575Z,12.13
2024-05-09T10:56:36.060Z,14.13
2024-05-09T10:59:06.819Z,13.15
2024-05-09T11:01:34.423Z,12.57
2024-05-09T11:04:05.090Z,12.95
2024-05-09T11:06:35.179Z,12.65
2024-05-09T11:09:06.169Z,12.98
2024-05-09T11:11:36.443Z,13.77
2024-05-09T11:14:14.870Z,13.00
2024-05-09T11:16:42.287Z,13.23
2024-05-09T11:19:16.003Z,12.43
2024-05-09T11:21:43.588Z,11.88
2024-05-09T11:24:14.117Z,12.82
2024-05-09T11:26:44.374Z,11.75
2024-05-09T11:29:17.173Z,12.75
2024-05-09T11:31:46.836Z,13.13
2024-05-09T11:34:17.059Z,12.77
2024-05-09T11:36:44.725Z,14.40
2024-05-09T11:39:14.969Z,12.60
2024-05-09T11:41:45.287Z,14.38
2024-05-09T11:44:16.052Z,12.60
2024-05-09T11:46:43.881Z,13.30
2024-05-09T11:49:14.329Z,12.73
2024-05-09T11:51:42.160Z,11.93
2024-05-09T11:54:12.274Z,12.43
2024-05-09T11:56:39.667Z,13.05
2024-05-09T11:59:12.571Z,12.88
2024-05-09T12:01:40.249Z,13.75
2024-05-09T12:04:10.587Z,12.20
2024-05-09T12:06:38.302Z,13.25
2024-05-09T12:09:08.431Z,11.60
2024-05-09T12:11:35.881Z,12.38
2024-05-09T12:14:06.536Z,11.75
2024-05-09T12:16:36.726Z,11.43
2024-05-09T12:19:06.985Z,11.48
2024-05-09T12:21:34.552Z,11.77
2024-05-09T12:24:04.696Z,11.93
2024-05-09T12:26:32.156Z,12.10
2024-05-09T12:29:03.118Z,11.23
2024-05-09T12:31:30.662Z,11.15
2024-05-09T12:34:03.553Z,11.07
2024-05-09T12:36:31.526Z,11.32
2024-05-09T12:39:01.927Z,11.00
2024-05-09T12:41:29.372Z,14.07
2024-05-09T12:43:59.714Z,11.40
2024-05-09T12:46:27.467Z,10.23
2024-05-09T12:48:57.736Z,11.20
2024-05-09T12:51:30.627Z,11.60
2024-05-09T12:54:00.780Z,11.88
2024-05-09T12:56:28.217Z,10.73
2024-05-09T12:58:58.360Z,10.10
2024-05-09T13:01:25.786Z,9.55
2024-05-09T13:03:56.065Z,10.35
2024-05-09T13:06:23.651Z,11.05
2024-05-09T13:08:56.364Z,11.15
2024-05-09T13:11:25.069Z,10.55
2024-05-09T13:13:55.114Z,9.70
2024-05-09T13:16:22.681Z,11.05
2024-05-09T13:18:52.948Z,11.48
2024-05-09T13:21:20.453Z,14.88
2024-05-09T13:23:50.576Z,9.65
2024-05-09T13:26:20.710Z,9.40
2024-05-09T13:28:50.822Z,8.48
2024-05-09T13:31:19.836Z,8.98
2024-05-09T13:33:50.082Z,8.57
2024-05-09T13:36:17.621Z,9.18
2024-05-09T13:38:47.754Z,9.40
2024-05-09T13:41:15.882Z,10.77
2024-05-09T13:43:48.582Z,8.15
2024-05-09T13:46:16.030Z,9.70
2024-05-09T13:48:46.232Z,7.30
2024-05-09T13:51:13.995Z,7.20
2024-05-09T13:53:44.099Z,9.27
2024-05-09T13:56:12.753Z,7.82
2024-05-09T13:58:42.885Z,9.38
2024-05-09T14:01:13.093Z,8.07
2024-05-09T14:03:43.386Z,8.40
2024-05-09T14:06:13.155Z,8.02
2024-05-09T14:08:44.283Z,8.05
2024-05-09T14:11:11.778Z,6.85
2024-05-09T14:13:41.836Z,7.00
2024-05-09T14:16:09.508Z,7.05
2024-05-09T14:18:42.968Z,8.50
2024-05-09T14:21:10.679Z,9.52
2024-05-09T14:23:40.778Z,6.95
2024-05-09T14:26:08.217Z,7.03
2024-05-09T14:31:20.189Z,7.13
2024-05-09T14:33:53.386Z,5.88
2024-05-09T14:36:20.948Z,6.50
2024-05-09T14:38:51.023Z,7.75
2024-05-09T14:41:18.659Z,7.53
2024-05-09T14:43:49.043Z,7.30
2024-05-09T14:46:16.751Z,6.57
2024-05-09T14:48:47.121Z,7.88
2024-05-09T14:51:17.711Z,6.72
2024-05-09T14:53:47.931Z,6.82
2024-05-09T14:56:15.805Z,7.50
2024-05-09T14:58:45.911Z,6.60
2024-05-09T15:01:13.541Z,7.97
2024-05-09T15:03:43.867Z,6.53
2024-05-09T15:06:11.554Z,7.30
2024-05-09T15:08:44.626Z,6.57
2024-05-09T15:11:12.132Z,6.57
2024-05-09T15:13:42.528Z,9.40
2024-05-09T15:16:10.069Z,6.68
2024-05-09T15:18:43.583Z,6.75
2024-05-09T15:21:11.577Z,6.80
2024-05-09T15:23:44.495Z,7.60
2024-05-09T15:26:12.950Z,6.50
2024-05-09T15:28:44.019Z,8.65
2024-05-09T15:31:11.507Z,6.72
2024-05-09T15:33:42.697Z,6.93
2024-05-09T15:36:10.262Z,6.10
2024-05-09T15:38:41.253Z,6.00
2024-05-09T15:41:11.396Z,5.70
2024-05-09T15:43:41.512Z,6.32
2024-05-09T15:46:09.073Z,6.35
2024-05-09T15:48:41.893Z,6.93
2024-05-09T15:51:11.525Z,11.75
2024-05-09T15:53:41.688Z,5.97
2024-05-09T15:56:11.850Z,7.65
2024-05-09T15:58:42.008Z,6.38
2024-05-09T16:01:09.478Z,8.32
2024-05-09T16:03:39.689Z,8.48
2024-05-09T16:06:07.200Z,9.43
2024-05-09T16:08:37.394Z,6.80
2024-05-09T16:11:05.175Z,8.43
2024-05-09T16:13:38.909Z,7.28
2024-05-09T16:16:09.095Z,9.10
2024-05-09T16:18:39.594Z,8.07
2024-05-09T16:21:07.695Z,7.93
2024-05-09T16:23:41.507Z,7.35
2024-05-09T16:28:55.706Z,5.38
2024-05-09T16:31:23.523Z,7.30
2024-05-09T16:33:58.956Z,6.10
2024-05-09T16:36:28.427Z,6.20
2024-05-09T16:39:01.365Z,6.40
2024-05-09T16:41:28.849Z,8.93
2024-05-09T16:44:01.882Z,11.43
2024-05-09T16:46:29.631Z,6.15
2024-05-09T16:48:59.855Z,8.40
2024-05-09T16:51:27.317Z,5.80
2024-05-09T16:53:57.394Z,8.55
2024-05-09T16:56:24.909Z,6.80
2024-05-09T16:58:55.037Z,8.30
2024-05-09T17:01:25.189Z,7.00
2024-05-09T17:03:55.536Z,6.00
2024-05-09T17:06:23.069Z,6.35
2024-05-09T17:08:55.451Z,10.48
2024-05-09T17:11:23.075Z,5.50
2024-05-09T17:13:53.161Z,6.75
2024-05-09T17:16:23.794Z,5.70
2024-05-09T17:18:56.839Z,5.68
2024-05-09T17:21:24.270Z,6.13
2024-05-09T17:23:55.689Z,6.15
2024-05-09T17:26:23.790Z,5.90
2024-05-09T17:28:53.967Z,6.13
2024-05-09T17:31:21.557Z,5.50
2024-05-09T17:33:52.005Z,5.03
2024-05-09T17:36:22.280Z,7.03
2024-05-09T17:38:52.387Z,5.70
2024-05-09T17:41:19.829Z,5.72
2024-05-09T17:43:49.959Z,5.43
2024-05-09T17:46:17.416Z,5.72
2024-05-09T17:48:47.773Z,5.35
2024-05-09T17:51:15.312Z,6.90
2024-05-09T17:53:48.082Z,5.22
2024-05-09T17:56:15.920Z,5.75
2024-05-09T17:58:46.501Z,5.35
2024-05-09T18:01:14.009Z,6.40
2024-05-09T18:03:47.487Z,6.22
2024-05-09T18:06:16.386Z,7.60
2024-05-09T18:08:49.283Z,6.85
2024-05-09T18:11:17.559Z,6.72
2024-05-09T18:13:48.762Z,8.55
2024-05-09T18:16:16.407Z,6.60
2024-05-09T18:18:46.997Z,7.28
2024-05-09T18:21:14.624Z,7.60
2024-05-09T18:23:44.916Z,6.90
2024-05-09T18:26:15.292Z,8.50
2024-05-09T18:28:47.138Z,7.10
2024-05-09T18:31:15.792Z,7.53
2024-05-09T18:33:46.248Z,7.03
2024-05-09T18:36:13.985Z,8.63
2024-05-09T18:38:44.245Z,7.68
2024-05-09T18:41:12.025Z,7.75
2024-05-09T18:43:45.682Z,8.48
2024-05-09T18:46:16.244Z,8.32
2024-05-09T18:48:46.533Z,8.60
2024-05-09T18:51:14.763Z,8.38
2024-05-09T18:53:45.157Z,8.40
2024-05-09T18:56:13.862Z,8.52
2024-05-09T18:58:46.804Z,9.05
2024-05-09T19:01:15.214Z,8.13
2024-05-09T19:03:45.546Z,9.45
2024-05-09T19:06:13.144Z,9.32
2024-05-09T19:08:43.270Z,9.55
2024-05-09T19:11:10.718Z,8.32
2024-05-09T19:13:40.938Z,8.23
2024-05-09T19:16:11.971Z,9.35
2024-05-09T19:18:42.620Z,8.60
2024-05-09T19:21:10.474Z,8.35
2024-05-09T19:23:47.084Z,7.93
2024-05-09T19:26:19.360Z,8.05
2024-05-09T19:28:49.488Z,8.50
2024-05-09T19:31:19.801Z,8.70
2024-05-09T19:33:50.301Z,8.35
2024-05-09T19:36:19.507Z,8.00
2024-05-09T19:38:51.600Z,9.98
2024-05-09T19:41:19.209Z,8.38
2024-05-09T19:43:49.314Z,12.00
2024-05-09T19:46:19.662Z,8.77
2024-05-09T19:48:50.117Z,8.38
2024-05-09T19:51:17.959Z,8.38
2024-05-09T19:53:48.052Z,9.18
2024-05-09T19:56:15.729Z,8.65
2024-05-09T19:58:46.323Z,9.18
2024-05-09T20:01:13.936Z,8.68
2024-05-09T20:03:47.046Z,8.93
2024-05-09T20:06:14.670Z,9.35
2024-05-09T20:08:44.791Z,10.05
2024-05-09T20:11:12.341Z,9.02
2024-05-09T20:13:42.491Z,8.95
2024-05-09T20:16:10.027Z,8.93
2024-05-09T20:18:40.330Z,10.00
2024-05-09T20:21:10.550Z,8.93
2024-05-09T20:23:40.820Z,10.05
2024-05-09T20:26:08.790Z,9.30
2024-05-09T20:28:39.223Z,12.35
2024-05-09T20:31:06.921Z,9.60
2024-05-09T20:33:38.217Z,10.77
2024-05-09T20:36:06.559Z,9.18
2024-05-09T20:38:41.296Z,9.18
2024-05-09T20:41:09.014Z,9.80
2024-05-09T20:43:39.133Z,9.65
2024-05-09T20:46:06.669Z,9.40
2024-05-09T20:48:37.033Z,10.38
2024-05-09T20:51:06.344Z,10.52
2024-05-09T20:53:39.136Z,10.20
2024-05-09T20:56:07.132Z,10.30
2024-05-09T20:58:37.225Z,9.77
2024-05-09T21:01:04.895Z,9.25
2024-05-09T21:06:05.654Z,10.95
2024-05-09T21:08:37.151Z,10.05
2024-05-09T21:11:07.465Z,9.73
2024-05-09T21:13:38.105Z,10.45
2024-05-09T21:16:06.073Z,10.93
2024-05-09T21:18:36.385Z,12.30
2024-05-09T21:21:03.954Z,11.52
2024-05-09T21:23:34.088Z,9.88
2024-05-09T21:26:02.754Z,10.23
2024-05-09T21:28:35.557Z,14.32
2024-05-09T21:31:03.385Z,10.70
2024-05-09T21:33:34.097Z,10.13
2024-05-09T21:36:01.626Z,10.60
2024-05-09T21:38:31.726Z,11.00
2024-05-09T21:40:59.182Z,10.45
2024-05-09T21:43:31.636Z,12.23
2024-05-09T21:46:01.799Z,11.00
2024-05-09T21:48:32.266Z,10.77
2024-05-09T21:50:59.789Z,11.05
2024-05-09T21:53:29.888Z,11.00
2024-05-09T21:55:57.506Z,11.13
2024-05-09T21:58:27.723Z,10.40
2024-05-09T22:00:55.504Z,10.98
2024-05-09T22:03:28.905Z,11.23
2024-05-09T22:05:56.513Z,11.38
2024-05-09T22:08:26.946Z,10.32
2024-05-09T22:10:54.659Z,10.52
2024-05-09T22:13:24.997Z,10.13
2024-05-09T22:15:52.528Z,10.93
2024-05-09T22:18:22.943Z,10.65
2024-05-09T22:20:53.845Z,10.38
2024-05-09T22:23:24.398Z,11.85
2024-05-09T22:25:51.795Z,11.40
2024-05-09T22:28:22.078Z,11.65
2024-05-09T22:30:50.609Z,10.88
2024-05-09T22:33:20.920Z,11.43
2024-05-09T22:35:48.430Z,10.13
2024-05-09T22:38:21.993Z,10.82
2024-05-09T22:40:50.215Z,11.02
2024-05-09T22:43:23.996Z,9.80
2024-05-09T22:45:53.513Z,12.23
2024-05-09T22:48:24.507Z,11.88
2024-05-09T22:50:52.592Z,11.48
2024-05-09T22:53:26.390Z,12.27
2024-05-09T22:55:53.862Z,11.77
2024-05-09T22:58:24.384Z,11.87
2024-05-09T23:00:52.125Z,11.57
2024-05-09T23:03:23.011Z,12.23
2024-05-09T23:05:50.692Z,11.33
2024-05-09T23:08:21.032Z,11.90
2024-05-09T23:10:51.404Z,11.30
2024-05-09T23:13:21.728Z,11.30
2024-05-09T23:15:49.398Z,12.10
2024-05-09T23:18:19.616Z,13.30
2024-05-09T23:20:47.110Z,12.50
2024-05-09T23:23:17.433Z,12.40
2024-05-09T23:25:45.346Z,12.27
2024-05-09T23:28:18.769Z,12.60
2024-05-09T23:30:46.275Z,11.77
2024-05-09T23:33:18.315Z,12.90
2024-05-09T23:35:45.881Z,12.65
2024-05-09T23:38:16.258Z,12.23
2024-05-09T23:40:43.867Z,13.50
2024-05-09T23:43:14.394Z,13.97
2024-05-09T23:45:45.617Z,14.23
2024-05-09T23:48:15.848Z,13.20
2024-05-09T23:50:43.604Z,13.53
2024-05-09T23:53:14.449Z,13.53
2024-05-09T23:55:42.000Z,13.43
2024-05-09T23:58:12.354Z,13.47
